sensor_id;sensor_type;location;lat;lon;timestamp;P1;durP1;ratioP1;P2;durP2;ratioP2
11614;SDS011;5863;52.832;4.758;2023-03-24T00:00:57;11.48;;;6.97;;
11614;SDS011;5863;52.832;4.758;2023-03-24T00:03:25;10.60;;;6.60;;
11614;SDS011;5863;52.832;4.758;2023-03-24T00:05:55;11.93;;;7.20;;
11614;SDS011;5863;52.832;4.758;2023-03-24T00:08:25;8.18;;;6.50;;
11614;SDS011;5863;52.832;4.758;2023-03-24T00:10:55;9.23;;;6.50;;
11614;SDS011;5863;52.832;4.758;2023-03-24T00:13:24;11.45;;;7.20;;
11614;SDS011;5863;52.832;4.758;2023-03-24T00:15:51;9.50;;;6.38;;
11614;SDS011;5863;52.832;4.758;2023-03-24T00:18:18;8.02;;;5.80;;
11614;SDS011;5863;52.832;4.758;2023-03-24T00:20:46;8.93;;;5.57;;
11614;SDS011;5863;52.832;4.758;2023-03-24T00:23:14;8.57;;;5.32;;
11614;SDS011;5863;52.832;4.758;2023-03-24T00:25:41;10.40;;;5.28;;
11614;SDS011;5863;52.832;4.758;2023-03-24T00:28:09;7.28;;;5.00;;
11614;SDS011;5863;52.832;4.758;2023-03-24T00:30:40;6.72;;;4.95;;
11614;SDS011;5863;52.832;4.758;2023-03-24T00:33:06;9.35;;;5.00;;
11614;SDS011;5863;52.832;4.758;2023-03-24T00:35:34;8.70;;;4.63;;
11614;SDS011;5863;52.832;4.758;2023-03-24T00:38:00;7.82;;;4.90;;
11614;SDS011;5863;52.832;4.758;2023-03-24T00:40:29;9.02;;;5.18;;
11614;SDS011;5863;52.832;4.758;2023-03-24T00:42:55;7.80;;;4.97;;
11614;SDS011;5863;52.832;4.758;2023-03-24T00:45:23;6.10;;;4.40;;
11614;SDS011;5863;52.832;4.758;2023-03-24T00:47:49;6.88;;;4.57;;
11614;SDS011;5863;52.832;4.758;2023-03-24T00:50:18;9.10;;;4.55;;
11614;SDS011;5863;52.832;4.758;2023-03-24T00:52:50;7.07;;;4.57;;
11614;SDS011;5863;52.832;4.758;2023-03-24T00:55:17;5.85;;;4.15;;
11614;SDS011;5863;52.832;4.758;2023-03-24T00:57:47;6.03;;;4.28;;
11614;SDS011;5863;52.832;4.758;2023-03-24T01:00:15;8.93;;;4.55;;
11614;SDS011;5863;52.832;4.758;2023-03-24T01:02:44;8.35;;;4.93;;
11614;SDS011;5863;52.832;4.758;2023-03-24T01:05:11;5.15;;;4.18;;
11614;SDS011;5863;52.832;4.758;2023-03-24T01:07:41;8.77;;;4.57;;
11614;SDS011;5863;52.832;4.758;2023-03-24T01:10:10;8.82;;;5.30;;
11614;SDS011;5863;52.832;4.758;2023-03-24T01:12:38;5.47;;;4.50;;
11614;SDS011;5863;52.832;4.758;2023-03-24T01:15:07;10.95;;;4.78;;
11614;SDS011;5863;52.832;4.758;2023-03-24T01:17:39;12.55;;;4.60;;
11614;SDS011;5863;52.832;4.758;2023-03-24T01:20:07;7.18;;;4.35;;
11614;SDS011;5863;52.832;4.758;2023-03-24T01:22:37;8.13;;;4.18;;
11614;SDS011;5863;52.832;4.758;2023-03-24T01:25:05;8.07;;;4.13;;
11614;SDS011;5863;52.832;4.758;2023-03-24T01:27:33;7.70;;;4.32;;
11614;SDS011;5863;52.832;4.758;2023-03-24T01:30:01;7.30;;;4.40;;
11614;SDS011;5863;52.832;4.758;2023-03-24T01:32:30;11.88;;;4.95;;
11614;SDS011;5863;52.832;4.758;2023-03-24T01:34:57;9.43;;;5.00;;
11614;SDS011;5863;52.832;4.758;2023-03-24T01:37:24;11.52;;;4.55;;
11614;SDS011;5863;52.832;4.758;2023-03-24T01:39:50;12.55;;;4.47;;
11614;SDS011;5863;52.832;4.758;2023-03-24T01:42:18;10.95;;;4.72;;
11614;SDS011;5863;52.832;4.758;2023-03-24T01:44:46;8.45;;;4.20;;
11614;SDS011;5863;52.832;4.758;2023-03-24T01:47:14;11.00;;;4.50;;
11614;SDS011;5863;52.832;4.758;2023-03-24T01:49:44;9.98;;;4.38;;
11614;SDS011;5863;52.832;4.758;2023-03-24T01:52:14;14.95;;;4.65;;
11614;SDS011;5863;52.832;4.758;2023-03-24T01:54:47;13.07;;;4.60;;
11614;SDS011;5863;52.832;4.758;2023-03-24T01:57:17;14.40;;;4.20;;
11614;SDS011;5863;52.832;4.758;2023-03-24T01:59:49;14.70;;;4.55;;
11614;SDS011;5863;52.832;4.758;2023-03-24T02:02:18;18.98;;;4.50;;
11614;SDS011;5863;52.832;4.758;2023-03-24T02:04:47;11.23;;;3.90;;
11614;SDS011;5863;52.832;4.758;2023-03-24T02:07:19;21.27;;;4.32;;
11614;SDS011;5863;52.832;4.758;2023-03-24T02:09:53;13.48;;;4.50;;
11614;SDS011;5863;52.832;4.758;2023-03-24T02:12:19;17.92;;;3.80;;
11614;SDS011;5863;52.832;4.758;2023-03-24T02:14:47;14.73;;;3.60;;
11614;SDS011;5863;52.832;4.758;2023-03-24T02:17:19;13.35;;;3.25;;
11614;SDS011;5863;52.832;4.758;2023-03-24T02:23:23;11.93;;;2.63;;
11614;SDS011;5863;52.832;4.758;2023-03-24T02:32:33;12.85;;;2.65;;
11614;SDS011;5863;52.832;4.758;2023-03-24T02:35:32;14.32;;;2.85;;
11614;SDS011;5863;52.832;4.758;2023-03-24T02:38:33;11.35;;;2.70;;
11614;SDS011;5863;52.832;4.758;2023-03-24T02:41:19;11.40;;;2.55;;
11614;SDS011;5863;52.832;4.758;2023-03-24T02:43:54;16.85;;;3.20;;
11614;SDS011;5863;52.832;4.758;2023-03-24T02:46:29;16.33;;;3.13;;
11614;SDS011;5863;52.832;4.758;2023-03-24T02:49:05;17.00;;;3.33;;
11614;SDS011;5863;52.832;4.758;2023-03-24T02:51:36;12.93;;;3.50;;
11614;SDS011;5863;52.832;4.758;2023-03-24T02:54:08;16.80;;;3.28;;
11614;SDS011;5863;52.832;4.758;2023-03-24T02:56:41;16.08;;;3.67;;
11614;SDS011;5863;52.832;4.758;2023-03-24T02:59:14;14.50;;;2.72;;
11614;SDS011;5863;52.832;4.758;2023-03-24T03:01:45;12.60;;;3.30;;
11614;SDS011;5863;52.832;4.758;2023-03-24T03:04:20;22.02;;;3.13;;
11614;SDS011;5863;52.832;4.758;2023-03-24T03:06:51;13.85;;;3.00;;
11614;SDS011;5863;52.832;4.758;2023-03-24T03:09:22;16.95;;;3.10;;
11614;SDS011;5863;52.832;4.758;2023-03-24T03:11:53;16.08;;;3.58;;
11614;SDS011;5863;52.832;4.758;2023-03-24T03:14:23;13.95;;;3.25;;
11614;SDS011;5863;52.832;4.758;2023-03-24T03:16:54;14.00;;;3.70;;
11614;SDS011;5863;52.832;4.758;2023-03-24T03:19:29;12.27;;;3.45;;
11614;SDS011;5863;52.832;4.758;2023-03-24T03:21:59;20.63;;;3.58;;
11614;SDS011;5863;52.832;4.758;2023-03-24T03:24:30;18.30;;;3.47;;
11614;SDS011;5863;52.832;4.758;2023-03-24T03:27:03;16.23;;;3.65;;
11614;SDS011;5863;52.832;4.758;2023-03-24T03:29:34;21.40;;;3.70;;
11614;SDS011;5863;52.832;4.758;2023-03-24T03:32:05;22.52;;;3.78;;
11614;SDS011;5863;52.832;4.758;2023-03-24T03:34:36;16.23;;;3.33;;
11614;SDS011;5863;52.832;4.758;2023-03-24T03:37:06;13.52;;;3.33;;
11614;SDS011;5863;52.832;4.758;2023-03-24T03:39:39;16.05;;;3.65;;
11614;SDS011;5863;52.832;4.758;2023-03-24T03:42:12;18.55;;;3.58;;
11614;SDS011;5863;52.832;4.758;2023-03-24T03:44:39;22.95;;;3.97;;
11614;SDS011;5863;52.832;4.758;2023-03-24T03:47:06;18.02;;;4.00;;
11614;SDS011;5863;52.832;4.758;2023-03-24T03:49:33;12.35;;;2.92;;
11614;SDS011;5863;52.832;4.758;2023-03-24T03:52:01;14.65;;;3.50;;
11614;SDS011;5863;52.832;4.758;2023-03-24T03:54:28;18.65;;;3.70;;
11614;SDS011;5863;52.832;4.758;2023-03-24T03:56:58;12.27;;;3.05;;
11614;SDS011;5863;52.832;4.758;2023-03-24T03:59:27;19.00;;;3.55;;
11614;SDS011;5863;52.832;4.758;2023-03-24T04:01:57;15.98;;;3.63;;
11614;SDS011;5863;52.832;4.758;2023-03-24T04:07:28;19.15;;;3.20;;
11614;SDS011;5863;52.832;4.758;2023-03-24T04:10:02;14.10;;;3.03;;
11614;SDS011;5863;52.832;4.758;2023-03-24T04:12:45;20.70;;;3.15;;
11614;SDS011;5863;52.832;4.758;2023-03-24T04:15:27;13.45;;;3.33;;
11614;SDS011;5863;52.832;4.758;2023-03-24T04:20:55;10.40;;;2.63;;
11614;SDS011;5863;52.832;4.758;2023-03-24T04:23:33;14.00;;;3.35;;
11614;SDS011;5863;52.832;4.758;2023-03-24T04:26:11;11.25;;;3.03;;
11614;SDS011;5863;52.832;4.758;2023-03-24T04:28:53;13.80;;;3.72;;
11614;SDS011;5863;52.832;4.758;2023-03-24T04:31:30;14.70;;;3.40;;
11614;SDS011;5863;52.832;4.758;2023-03-24T04:34:01;12.00;;;2.92;;
11614;SDS011;5863;52.832;4.758;2023-03-24T04:36:34;15.15;;;2.83;;
11614;SDS011;5863;52.832;4.758;2023-03-24T04:39:07;15.40;;;3.60;;
11614;SDS011;5863;52.832;4.758;2023-03-24T04:41:36;17.55;;;3.78;;
11614;SDS011;5863;52.832;4.758;2023-03-24T04:44:04;22.63;;;4.00;;
11614;SDS011;5863;52.832;4.758;2023-03-24T04:46:33;15.02;;;2.90;;
11614;SDS011;5863;52.832;4.758;2023-03-24T04:49:00;17.05;;;3.47;;
11614;SDS011;5863;52.832;4.758;2023-03-24T04:51:27;14.25;;;2.85;;
11614;SDS011;5863;52.832;4.758;2023-03-24T04:53:54;15.60;;;3.15;;
11614;SDS011;5863;52.832;4.758;2023-03-24T04:56:24;16.70;;;3.65;;
11614;SDS011;5863;52.832;4.758;2023-03-24T04:59:00;14.88;;;3.47;;
11614;SDS011;5863;52.832;4.758;2023-03-24T05:01:27;11.13;;;3.05;;
11614;SDS011;5863;52.832;4.758;2023-03-24T05:03:56;16.73;;;3.17;;
11614;SDS011;5863;52.832;4.758;2023-03-24T05:06:23;18.63;;;3.53;;
11614;SDS011;5863;52.832;4.758;2023-03-24T05:08:49;16.17;;;3.20;;
11614;SDS011;5863;52.832;4.758;2023-03-24T05:11:17;18.10;;;4.05;;
11614;SDS011;5863;52.832;4.758;2023-03-24T05:13:44;13.18;;;2.83;;
11614;SDS011;5863;52.832;4.758;2023-03-24T05:16:11;11.60;;;3.10;;
11614;SDS011;5863;52.832;4.758;2023-03-24T05:18:38;19.30;;;3.60;;
11614;SDS011;5863;52.832;4.758;2023-03-24T05:21:07;19.20;;;3.70;;
11614;SDS011;5863;52.832;4.758;2023-03-24T05:23:34;23.58;;;4.22;;
11614;SDS011;5863;52.832;4.758;2023-03-24T05:26:00;15.95;;;3.50;;
11614;SDS011;5863;52.832;4.758;2023-03-24T05:28:27;16.48;;;3.55;;
11614;SDS011;5863;52.832;4.758;2023-03-24T05:30:54;15.88;;;3.50;;
11614;SDS011;5863;52.832;4.758;2023-03-24T05:33:21;17.10;;;3.88;;
11614;SDS011;5863;52.832;4.758;2023-03-24T05:35:47;14.25;;;3.53;;
11614;SDS011;5863;52.832;4.758;2023-03-24T05:38:15;21.17;;;4.13;;
11614;SDS011;5863;52.832;4.758;2023-03-24T05:40:42;15.00;;;3.40;;
11614;SDS011;5863;52.832;4.758;2023-03-24T05:43:09;16.35;;;3.92;;
11614;SDS011;5863;52.832;4.758;2023-03-24T05:45:36;22.88;;;4.38;;
11614;SDS011;5863;52.832;4.758;2023-03-24T05:48:03;17.80;;;4.68;;
11614;SDS011;5863;52.832;4.758;2023-03-24T05:50:30;25.73;;;5.00;;
11614;SDS011;5863;52.832;4.758;2023-03-24T05:52:57;23.73;;;4.90;;
11614;SDS011;5863;52.832;4.758;2023-03-24T05:55:25;26.45;;;4.80;;
11614;SDS011;5863;52.832;4.758;2023-03-24T05:57:51;18.60;;;4.43;;
11614;SDS011;5863;52.832;4.758;2023-03-24T06:00:19;21.42;;;4.40;;
11614;SDS011;5863;52.832;4.758;2023-03-24T06:02:47;21.02;;;4.78;;
11614;SDS011;5863;52.832;4.758;2023-03-24T06:05:14;20.88;;;4.00;;
11614;SDS011;5863;52.832;4.758;2023-03-24T06:07:41;17.67;;;4.00;;
11614;SDS011;5863;52.832;4.758;2023-03-24T06:10:08;25.75;;;4.07;;
11614;SDS011;5863;52.832;4.758;2023-03-24T06:12:39;26.95;;;5.32;;
11614;SDS011;5863;52.832;4.758;2023-03-24T06:15:07;25.90;;;5.15;;
11614;SDS011;5863;52.832;4.758;2023-03-24T06:17:34;17.23;;;3.58;;
11614;SDS011;5863;52.832;4.758;2023-03-24T06:20:02;22.60;;;5.07;;
11614;SDS011;5863;52.832;4.758;2023-03-24T06:22:30;22.30;;;4.32;;
11614;SDS011;5863;52.832;4.758;2023-03-24T06:24:57;26.48;;;5.43;;
11614;SDS011;5863;52.832;4.758;2023-03-24T06:27:24;21.75;;;4.35;;
11614;SDS011;5863;52.832;4.758;2023-03-24T06:29:55;24.13;;;4.60;;
11614;SDS011;5863;52.832;4.758;2023-03-24T06:32:22;21.05;;;4.40;;
11614;SDS011;5863;52.832;4.758;2023-03-24T06:34:49;27.42;;;4.93;;
11614;SDS011;5863;52.832;4.758;2023-03-24T06:37:16;27.30;;;5.35;;
11614;SDS011;5863;52.832;4.758;2023-03-24T06:39:43;22.58;;;4.53;;
11614;SDS011;5863;52.832;4.758;2023-03-24T06:42:10;22.70;;;4.28;;
11614;SDS011;5863;52.832;4.758;2023-03-24T06:44:38;28.77;;;5.28;;
11614;SDS011;5863;52.832;4.758;2023-03-24T06:47:06;22.23;;;4.93;;
11614;SDS011;5863;52.832;4.758;2023-03-24T06:49:33;22.48;;;5.03;;
11614;SDS011;5863;52.832;4.758;2023-03-24T06:52:01;24.50;;;4.72;;
11614;SDS011;5863;52.832;4.758;2023-03-24T06:54:28;22.20;;;4.93;;
11614;SDS011;5863;52.832;4.758;2023-03-24T06:56:54;28.35;;;4.68;;
11614;SDS011;5863;52.832;4.758;2023-03-24T06:59:21;30.15;;;5.45;;
11614;SDS011;5863;52.832;4.758;2023-03-24T07:01:48;25.67;;;6.05;;
11614;SDS011;5863;52.832;4.758;2023-03-24T07:04:17;20.77;;;4.95;;
11614;SDS011;5863;52.832;4.758;2023-03-24T07:06:44;21.02;;;5.38;;
11614;SDS011;5863;52.832;4.758;2023-03-24T07:09:11;30.70;;;4.75;;
11614;SDS011;5863;52.832;4.758;2023-03-24T07:11:38;19.00;;;4.30;;
11614;SDS011;5863;52.832;4.758;2023-03-24T07:14:05;28.20;;;5.55;;
11614;SDS011;5863;52.832;4.758;2023-03-24T07:16:32;24.45;;;5.45;;
11614;SDS011;5863;52.832;4.758;2023-03-24T07:18:58;29.00;;;5.35;;
11614;SDS011;5863;52.832;4.758;2023-03-24T07:21:28;27.15;;;4.90;;
11614;SDS011;5863;52.832;4.758;2023-03-24T07:23:54;23.60;;;4.85;;
11614;SDS011;5863;52.832;4.758;2023-03-24T07:26:21;28.95;;;5.53;;
11614;SDS011;5863;52.832;4.758;2023-03-24T07:28:48;25.52;;;5.13;;
11614;SDS011;5863;52.832;4.758;2023-03-24T07:31:15;25.02;;;4.57;;
11614;SDS011;5863;52.832;4.758;2023-03-24T07:33:43;26.63;;;5.40;;
11614;SDS011;5863;52.832;4.758;2023-03-24T07:36:09;28.70;;;5.25;;
11614;SDS011;5863;52.832;4.758;2023-03-24T07:38:45;30.13;;;6.80;;
11614;SDS011;5863;52.832;4.758;2023-03-24T07:41:11;24.48;;;5.65;;
11614;SDS011;5863;52.832;4.758;2023-03-24T07:43:38;26.50;;;6.13;;
11614;SDS011;5863;52.832;4.758;2023-03-24T07:46:05;23.48;;;5.35;;
11614;SDS011;5863;52.832;4.758;2023-03-24T07:48:32;23.20;;;5.20;;
11614;SDS011;5863;52.832;4.758;2023-03-24T07:50:58;22.00;;;5.25;;
11614;SDS011;5863;52.832;4.758;2023-03-24T07:53:25;24.52;;;5.13;;
11614;SDS011;5863;52.832;4.758;2023-03-24T07:55:53;25.08;;;5.13;;
11614;SDS011;5863;52.832;4.758;2023-03-24T07:58:20;24.40;;;5.35;;
11614;SDS011;5863;52.832;4.758;2023-03-24T08:00:47;18.33;;;5.05;;
11614;SDS011;5863;52.832;4.758;2023-03-24T08:03:14;21.75;;;4.88;;
11614;SDS011;5863;52.832;4.758;2023-03-24T08:05:41;21.38;;;5.15;;
11614;SDS011;5863;52.832;4.758;2023-03-24T08:08:09;20.77;;;5.07;;
11614;SDS011;5863;52.832;4.758;2023-03-24T08:10:36;15.30;;;3.95;;
11614;SDS011;5863;52.832;4.758;2023-03-24T08:13:04;22.70;;;4.68;;
11614;SDS011;5863;52.832;4.758;2023-03-24T08:15:31;19.92;;;4.45;;
11614;SDS011;5863;52.832;4.758;2023-03-24T08:17:58;17.50;;;4.45;;
11614;SDS011;5863;52.832;4.758;2023-03-24T08:20:24;20.80;;;5.00;;
11614;SDS011;5863;52.832;4.758;2023-03-24T08:22:53;20.02;;;4.38;;
11614;SDS011;5863;52.832;4.758;2023-03-24T08:25:21;15.63;;;4.30;;
11614;SDS011;5863;52.832;4.758;2023-03-24T08:27:50;20.70;;;4.97;;
11614;SDS011;5863;52.832;4.758;2023-03-24T08:30:22;22.38;;;5.25;;
11614;SDS011;5863;52.832;4.758;2023-03-24T08:32:50;19.98;;;4.40;;
11614;SDS011;5863;52.832;4.758;2023-03-24T08:35:19;21.40;;;4.95;;
11614;SDS011;5863;52.832;4.758;2023-03-24T08:37:47;26.58;;;5.40;;
11614;SDS011;5863;52.832;4.758;2023-03-24T08:40:15;18.98;;;4.85;;
11614;SDS011;5863;52.832;4.758;2023-03-24T08:42:46;19.35;;;4.32;;
11614;SDS011;5863;52.832;4.758;2023-03-24T08:45:13;24.23;;;4.32;;
11614;SDS011;5863;52.832;4.758;2023-03-24T08:47:41;23.25;;;5.13;;
11614;SDS011;5863;52.832;4.758;2023-03-24T08:50:10;21.65;;;4.90;;
11614;SDS011;5863;52.832;4.758;2023-03-24T08:52:37;21.20;;;4.88;;
11614;SDS011;5863;52.832;4.758;2023-03-24T08:55:06;23.75;;;4.93;;
11614;SDS011;5863;52.832;4.758;2023-03-24T08:57:34;31.00;;;5.10;;
11614;SDS011;5863;52.832;4.758;2023-03-24T09:00:01;22.77;;;5.35;;
11614;SDS011;5863;52.832;4.758;2023-03-24T09:02:32;22.98;;;5.43;;
11614;SDS011;5863;52.832;4.758;2023-03-24T09:05:03;26.35;;;4.80;;
11614;SDS011;5863;52.832;4.758;2023-03-24T09:07:30;25.98;;;5.75;;
11614;SDS011;5863;52.832;4.758;2023-03-24T09:09:56;26.25;;;4.65;;
11614;SDS011;5863;52.832;4.758;2023-03-24T09:12:23;25.83;;;5.53;;
11614;SDS011;5863;52.832;4.758;2023-03-24T09:14:50;32.58;;;5.88;;
11614;SDS011;5863;52.832;4.758;2023-03-24T09:17:16;24.73;;;4.82;;
11614;SDS011;5863;52.832;4.758;2023-03-24T09:19:43;28.75;;;5.25;;
11614;SDS011;5863;52.832;4.758;2023-03-24T09:22:14;23.20;;;5.13;;
11614;SDS011;5863;52.832;4.758;2023-03-24T09:24:41;25.92;;;5.47;;
11614;SDS011;5863;52.832;4.758;2023-03-24T09:27:08;24.02;;;4.60;;
11614;SDS011;5863;52.832;4.758;2023-03-24T09:29:35;29.10;;;5.30;;
11614;SDS011;5863;52.832;4.758;2023-03-24T09:32:02;22.35;;;4.68;;
11614;SDS011;5863;52.832;4.758;2023-03-24T09:34:28;24.33;;;5.25;;
11614;SDS011;5863;52.832;4.758;2023-03-24T09:36:56;27.65;;;5.60;;
11614;SDS011;5863;52.832;4.758;2023-03-24T09:39:24;28.88;;;6.07;;
11614;SDS011;5863;52.832;4.758;2023-03-24T09:41:51;23.33;;;4.72;;
11614;SDS011;5863;52.832;4.758;2023-03-24T09:44:21;25.67;;;4.75;;
11614;SDS011;5863;52.832;4.758;2023-03-24T09:46:51;26.92;;;4.60;;
11614;SDS011;5863;52.832;4.758;2023-03-24T09:49:23;21.27;;;5.22;;
11614;SDS011;5863;52.832;4.758;2023-03-24T09:51:53;22.35;;;4.93;;
11614;SDS011;5863;52.832;4.758;2023-03-24T09:54:27;24.48;;;4.90;;
11614;SDS011;5863;52.832;4.758;2023-03-24T09:57:01;26.55;;;4.95;;
11614;SDS011;5863;52.832;4.758;2023-03-24T09:59:31;23.05;;;4.57;;
11614;SDS011;5863;52.832;4.758;2023-03-24T10:02:00;24.73;;;4.68;;
11614;SDS011;5863;52.832;4.758;2023-03-24T10:04:29;22.73;;;4.72;;
11614;SDS011;5863;52.832;4.758;2023-03-24T10:06:57;26.05;;;4.63;;
11614;SDS011;5863;52.832;4.758;2023-03-24T10:09:29;23.50;;;4.75;;
11614;SDS011;5863;52.832;4.758;2023-03-24T10:12:01;20.33;;;4.35;;
11614;SDS011;5863;52.832;4.758;2023-03-24T10:14:40;26.15;;;5.05;;
11614;SDS011;5863;52.832;4.758;2023-03-24T10:17:16;20.70;;;4.28;;
11614;SDS011;5863;52.832;4.758;2023-03-24T10:19:51;22.92;;;5.00;;
11614;SDS011;5863;52.832;4.758;2023-03-24T10:22:23;21.08;;;4.68;;
11614;SDS011;5863;52.832;4.758;2023-03-24T10:24:58;21.25;;;4.53;;
11614;SDS011;5863;52.832;4.758;2023-03-24T10:27:32;26.60;;;4.72;;
11614;SDS011;5863;52.832;4.758;2023-03-24T10:30:07;19.85;;;4.30;;
11614;SDS011;5863;52.832;4.758;2023-03-24T10:32:39;23.75;;;4.38;;
11614;SDS011;5863;52.832;4.758;2023-03-24T10:35:12;18.23;;;4.60;;
11614;SDS011;5863;52.832;4.758;2023-03-24T10:37:42;18.13;;;3.85;;
11614;SDS011;5863;52.832;4.758;2023-03-24T10:40:14;22.25;;;4.50;;
11614;SDS011;5863;52.832;4.758;2023-03-24T10:42:43;22.50;;;4.25;;
11614;SDS011;5863;52.832;4.758;2023-03-24T10:45:13;21.98;;;4.47;;
11614;SDS011;5863;52.832;4.758;2023-03-24T10:47:45;16.98;;;3.72;;
11614;SDS011;5863;52.832;4.758;2023-03-24T10:50:14;22.75;;;3.92;;
11614;SDS011;5863;52.832;4.758;2023-03-24T10:52:42;22.40;;;4.20;;
11614;SDS011;5863;52.832;4.758;2023-03-24T10:55:14;20.23;;;4.35;;
11614;SDS011;5863;52.832;4.758;2023-03-24T10:57:43;20.92;;;4.30;;
11614;SDS011;5863;52.832;4.758;2023-03-24T11:00:15;22.88;;;4.35;;
11614;SDS011;5863;52.832;4.758;2023-03-24T11:02:44;21.70;;;4.35;;
11614;SDS011;5863;52.832;4.758;2023-03-24T11:05:25;22.92;;;3.67;;
11614;SDS011;5863;52.832;4.758;2023-03-24T11:07:56;14.90;;;3.78;;
11614;SDS011;5863;52.832;4.758;2023-03-24T11:10:36;18.88;;;4.30;;
11614;SDS011;5863;52.832;4.758;2023-03-24T11:13:04;22.52;;;4.28;;
11614;SDS011;5863;52.832;4.758;2023-03-24T11:15:41;19.63;;;3.97;;
11614;SDS011;5863;52.832;4.758;2023-03-24T11:18:18;22.33;;;4.18;;
11614;SDS011;5863;52.832;4.758;2023-03-24T11:20:46;16.95;;;4.07;;
11614;SDS011;5863;52.832;4.758;2023-03-24T11:23:19;24.45;;;5.28;;
11614;SDS011;5863;52.832;4.758;2023-03-24T11:26:01;19.55;;;4.22;;
11614;SDS011;5863;52.832;4.758;2023-03-24T11:28:34;24.52;;;4.30;;
11614;SDS011;5863;52.832;4.758;2023-03-24T11:31:05;23.20;;;4.28;;
11614;SDS011;5863;52.832;4.758;2023-03-24T11:33:34;15.65;;;3.92;;
11614;SDS011;5863;52.832;4.758;2023-03-24T11:36:33;18.10;;;4.43;;
11614;SDS011;5863;52.832;4.758;2023-03-24T11:41:49;22.67;;;4.13;;
11614;SDS011;5863;52.832;4.758;2023-03-24T11:44:19;23.50;;;5.30;;
11614;SDS011;5863;52.832;4.758;2023-03-24T11:46:49;22.60;;;4.30;;
11614;SDS011;5863;52.832;4.758;2023-03-24T11:49:18;21.50;;;4.57;;
11614;SDS011;5863;52.832;4.758;2023-03-24T11:51:48;20.60;;;4.45;;
11614;SDS011;5863;52.832;4.758;2023-03-24T11:54:18;26.42;;;5.13;;
11614;SDS011;5863;52.832;4.758;2023-03-24T11:56:50;23.23;;;4.07;;
11614;SDS011;5863;52.832;4.758;2023-03-24T11:59:21;20.85;;;4.70;;
11614;SDS011;5863;52.832;4.758;2023-03-24T12:01:55;20.50;;;4.35;;
11614;SDS011;5863;52.832;4.758;2023-03-24T12:04:27;17.92;;;4.47;;
11614;SDS011;5863;52.832;4.758;2023-03-24T12:07:09;24.13;;;4.60;;
11614;SDS011;5863;52.832;4.758;2023-03-24T12:09:56;25.27;;;4.97;;
11614;SDS011;5863;52.832;4.758;2023-03-24T12:12:31;19.25;;;4.68;;
11614;SDS011;5863;52.832;4.758;2023-03-24T12:15:12;26.65;;;5.72;;
11614;SDS011;5863;52.832;4.758;2023-03-24T12:17:49;27.65;;;4.90;;
11614;SDS011;5863;52.832;4.758;2023-03-24T12:20:22;27.02;;;5.07;;
11614;SDS011;5863;52.832;4.758;2023-03-24T12:22:57;28.40;;;4.97;;
11614;SDS011;5863;52.832;4.758;2023-03-24T12:25:30;22.15;;;5.03;;
11614;SDS011;5863;52.832;4.758;2023-03-24T12:28:15;28.63;;;4.90;;
11614;SDS011;5863;52.832;4.758;2023-03-24T12:30:55;22.75;;;4.72;;
11614;SDS011;5863;52.832;4.758;2023-03-24T12:33:37;22.08;;;4.40;;
11614;SDS011;5863;52.832;4.758;2023-03-24T12:36:18;20.77;;;5.05;;
11614;SDS011;5863;52.832;4.758;2023-03-24T12:38:58;23.70;;;4.38;;
11614;SDS011;5863;52.832;4.758;2023-03-24T12:44:36;21.05;;;4.55;;
11614;SDS011;5863;52.832;4.758;2023-03-24T12:47:16;17.60;;;4.38;;
11614;SDS011;5863;52.832;4.758;2023-03-24T12:49:58;23.30;;;4.45;;
11614;SDS011;5863;52.832;4.758;2023-03-24T12:52:44;22.00;;;4.30;;
11614;SDS011;5863;52.832;4.758;2023-03-24T12:55:22;23.90;;;4.38;;
11614;SDS011;5863;52.832;4.758;2023-03-24T12:57:55;17.17;;;3.85;;
11614;SDS011;5863;52.832;4.758;2023-03-24T13:00:27;24.80;;;4.15;;
11614;SDS011;5863;52.832;4.758;2023-03-24T13:02:58;17.90;;;3.78;;
11614;SDS011;5863;52.832;4.758;2023-03-24T13:05:30;24.88;;;4.38;;
11614;SDS011;5863;52.832;4.758;2023-03-24T13:08:00;15.98;;;3.42;;
11614;SDS011;5863;52.832;4.758;2023-03-24T13:10:32;24.95;;;4.40;;
11614;SDS011;5863;52.832;4.758;2023-03-24T13:13:05;18.35;;;4.13;;
11614;SDS011;5863;52.832;4.758;2023-03-24T13:15:40;25.88;;;4.35;;
11614;SDS011;5863;52.832;4.758;2023-03-24T13:18:15;19.80;;;4.25;;
11614;SDS011;5863;52.832;4.758;2023-03-24T13:20:50;19.13;;;3.97;;
11614;SDS011;5863;52.832;4.758;2023-03-24T13:23:24;21.25;;;4.05;;
11614;SDS011;5863;52.832;4.758;2023-03-24T13:26:00;21.63;;;4.10;;
11614;SDS011;5863;52.832;4.758;2023-03-24T13:28:37;19.80;;;4.22;;
11614;SDS011;5863;52.832;4.758;2023-03-24T13:31:13;20.40;;;3.72;;
11614;SDS011;5863;52.832;4.758;2023-03-24T13:33:41;15.70;;;3.50;;
11614;SDS011;5863;52.832;4.758;2023-03-24T13:36:13;23.80;;;4.45;;
11614;SDS011;5863;52.832;4.758;2023-03-24T13:38:53;21.42;;;4.20;;
11614;SDS011;5863;52.832;4.758;2023-03-24T13:41:23;15.52;;;3.72;;
11614;SDS011;5863;52.832;4.758;2023-03-24T13:43:56;25.48;;;5.25;;
11614;SDS011;5863;52.832;4.758;2023-03-24T13:46:26;22.63;;;3.90;;
11614;SDS011;5863;52.832;4.758;2023-03-24T13:48:53;21.65;;;4.07;;
11614;SDS011;5863;52.832;4.758;2023-03-24T13:51:23;21.23;;;3.90;;
11614;SDS011;5863;52.832;4.758;2023-03-24T13:53:52;22.50;;;4.78;;
11614;SDS011;5863;52.832;4.758;2023-03-24T13:56:24;30.10;;;4.65;;
11614;SDS011;5863;52.832;4.758;2023-03-24T13:59:07;16.60;;;4.55;;
11614;SDS011;5863;52.832;4.758;2023-03-24T14:04:43;24.65;;;4.93;;
11614;SDS011;5863;52.832;4.758;2023-03-24T14:07:40;28.23;;;5.20;;
11614;SDS011;5863;52.832;4.758;2023-03-24T14:13:19;20.85;;;4.32;;
11614;SDS011;5863;52.832;4.758;2023-03-24T14:15:48;31.27;;;6.20;;
11614;SDS011;5863;52.832;4.758;2023-03-24T14:21:08;24.30;;;5.47;;
11614;SDS011;5863;52.832;4.758;2023-03-24T14:23:36;25.33;;;4.75;;
11614;SDS011;5863;52.832;4.758;2023-03-24T14:26:05;26.10;;;4.90;;
11614;SDS011;5863;52.832;4.758;2023-03-24T14:28:35;26.60;;;5.43;;
11614;SDS011;5863;52.832;4.758;2023-03-24T14:31:07;26.65;;;5.60;;
11614;SDS011;5863;52.832;4.758;2023-03-24T14:33:57;20.58;;;4.25;;
11614;SDS011;5863;52.832;4.758;2023-03-24T14:36:30;21.58;;;4.88;;
11614;SDS011;5863;52.832;4.758;2023-03-24T14:39:06;21.15;;;5.03;;
11614;SDS011;5863;52.832;4.758;2023-03-24T14:41:38;26.27;;;5.78;;
11614;SDS011;5863;52.832;4.758;2023-03-24T14:44:08;21.63;;;4.63;;
11614;SDS011;5863;52.832;4.758;2023-03-24T14:46:36;30.92;;;5.88;;
11614;SDS011;5863;52.832;4.758;2023-03-24T14:49:08;25.55;;;5.47;;
11614;SDS011;5863;52.832;4.758;2023-03-24T14:51:42;27.13;;;4.90;;
11614;SDS011;5863;52.832;4.758;2023-03-24T14:54:14;25.90;;;5.00;;
11614;SDS011;5863;52.832;4.758;2023-03-24T14:56:44;24.27;;;4.93;;
11614;SDS011;5863;52.832;4.758;2023-03-24T14:59:16;18.45;;;4.15;;
11614;SDS011;5863;52.832;4.758;2023-03-24T15:01:53;23.27;;;5.25;;
11614;SDS011;5863;52.832;4.758;2023-03-24T15:04:27;20.50;;;4.63;;
11614;SDS011;5863;52.832;4.758;2023-03-24T15:06:53;19.67;;;4.40;;
11614;SDS011;5863;52.832;4.758;2023-03-24T15:09:20;28.83;;;4.80;;
11614;SDS011;5863;52.832;4.758;2023-03-24T15:11:47;22.60;;;5.53;;
11614;SDS011;5863;52.832;4.758;2023-03-24T15:14:17;28.20;;;5.40;;
11614;SDS011;5863;52.832;4.758;2023-03-24T15:16:51;23.63;;;5.45;;
11614;SDS011;5863;52.832;4.758;2023-03-24T15:19:20;27.98;;;5.10;;
11614;SDS011;5863;52.832;4.758;2023-03-24T15:21:49;21.92;;;4.82;;
11614;SDS011;5863;52.832;4.758;2023-03-24T15:24:25;21.58;;;4.82;;
11614;SDS011;5863;52.832;4.758;2023-03-24T15:27:07;25.48;;;4.82;;
11614;SDS011;5863;52.832;4.758;2023-03-24T15:29:42;24.45;;;4.57;;
11614;SDS011;5863;52.832;4.758;2023-03-24T15:32:12;22.85;;;4.57;;
11614;SDS011;5863;52.832;4.758;2023-03-24T15:34:45;23.73;;;4.90;;
11614;SDS011;5863;52.832;4.758;2023-03-24T15:37:20;25.25;;;5.00;;
11614;SDS011;5863;52.832;4.758;2023-03-24T15:39:49;21.38;;;4.75;;